Terminal Aerodrome Forecast
Issued by NWS

Home | Current Version | Previous Version | Text Only | Print | Product List | Glossary On
Versions: 1 2 3 4 5 6 7 8 9 10 11 12 13 14 15 16 17 18 19 20 21
000
FTUS41 KPBZ 241400 AAB
TAFDUJ
TAF AMD
KDUJ 241410Z 2414/2512 30009KT P6SM BKN010
     FM241500 28008KT P6SM BKN200
     FM250600 26005KT P6SM BKN035=

USA.gov is the U.S. government's official web portal to all federal, state and local government web resources and services.